Time,TemperatureF,DewpointF,PressureIn,WindDirection,WindDirectionDegrees,WindSpeedMPH,WindSpeedGustMPH,Humidity,HourlyPrecipIn,Conditions,Clouds,dailyrainin,SolarRadiationWatts/m^2,SoftwareType,DateUTC
2013-01-03 00:02:00,34.0,0.0,-100.00,North,3,19.0,25.0,23,0.00,,,0.00,2.000000,,2013-01-03 08:02:00,
2013-01-03 00:11:00,34.0,0.0,-100.00,North,3,19.0,25.0,23,0.00,,,0.00,2.000000,,2013-01-03 08:11:00,
2013-01-03 00:43:00,35.0,1.0,-100.00,North,2,22.0,30.0,23,0.00,,,0.00,2.000000,,2013-01-03 08:43:00,
2013-01-03 00:53:00,35.0,1.0,-100.00,North,2,22.0,30.0,23,0.00,,,0.00,2.000000,,2013-01-03 08:53:00,
2013-01-03 01:02:00,35.0,1.0,-100.00,North,2,22.0,30.0,23,0.00,,,0.00,2.000000,,2013-01-03 09:02:00,
2013-01-03 01:11:00,35.0,1.0,-100.00,North,2,22.0,30.0,23,0.00,,,0.00,2.000000,,2013-01-03 09:11:00,
2013-01-03 01:34:00,33.0,-1.0,-100.00,North,2,18.0,29.0,23,0.00,,,0.00,2.000000,,2013-01-03 09:34:00,
2013-01-03 01:43:00,33.0,-1.0,-100.00,North,2,18.0,29.0,23,0.00,,,0.00,2.000000,,2013-01-03 09:43:00,
2013-01-03 01:53:00,33.0,-1.0,-100.00,North,2,18.0,29.0,23,0.00,,,0.00,2.000000,,2013-01-03 09:53:00,
2013-01-03 02:11:00,33.0,-1.0,-100.00,North,2,18.0,29.0,23,0.00,,,0.00,2.000000,,2013-01-03 10:11:00,
2013-01-03 02:33:00,31.0,4.0,-100.00,North,2,18.0,26.0,31,0.00,,,-99.99,2.000000,,2013-01-03 10:33:00,
2013-01-03 02:43:00,31.0,4.0,-100.00,North,2,18.0,26.0,31,0.00,,,-99.99,2.000000,,2013-01-03 10:43:00,
2013-01-03 02:52:00,31.0,4.0,-100.00,North,2,18.0,26.0,31,0.00,,,-99.99,2.000000,,2013-01-03 10:52:00,
2013-01-03 03:02:00,31.0,4.0,-100.00,North,2,18.0,26.0,31,0.00,,,-99.99,2.000000,,2013-01-03 11:02:00,
2013-01-03 03:11:00,31.0,4.0,-100.00,North,2,18.0,26.0,31,0.00,,,-99.99,2.000000,,2013-01-03 11:11:00,
2013-01-03 03:33:00,30.0,5.0,-100.00,North,3,20.0,28.0,34,0.00,,,0.00,2.000000,,2013-01-03 11:33:00,
2013-01-03 03:43:00,30.0,5.0,-100.00,North,3,20.0,28.0,34,0.00,,,0.00,2.000000,,2013-01-03 11:43:00,
2013-01-03 03:53:00,30.0,5.0,-100.00,North,3,20.0,28.0,34,0.00,,,0.00,2.000000,,2013-01-03 11:53:00,
2013-01-03 04:02:00,30.0,5.0,-100.00,North,3,20.0,28.0,34,0.00,,,0.00,2.000000,,2013-01-03 12:02:00,
2013-01-03 04:12:00,30.0,5.0,-100.00,North,3,20.0,28.0,34,0.00,,,0.00,2.000000,,2013-01-03 12:12:00,
2013-01-03 04:43:00,27.0,6.0,-100.00,North,3,16.0,28.0,40,0.00,,,0.00,2.000000,,2013-01-03 12:43:00,
2013-01-03 04:53:00,27.0,6.0,-100.00,North,3,16.0,28.0,40,0.00,,,0.00,2.000000,,2013-01-03 12:53:00,
2013-01-03 05:02:00,27.0,6.0,-100.00,North,3,16.0,28.0,40,0.00,,,0.00,2.000000,,2013-01-03 13:02:00,
2013-01-03 05:12:00,27.0,6.0,-100.00,North,3,16.0,28.0,40,0.00,,,0.00,2.000000,,2013-01-03 13:12:00,
2013-01-03 05:42:00,30.0,4.0,-100.00,North,3,20.0,30.0,33,0.00,,,0.00,2.000000,,2013-01-03 13:42:00,
2013-01-03 05:53:00,30.0,4.0,-100.00,North,3,20.0,30.0,33,0.00,,,0.00,2.000000,,2013-01-03 13:53:00,
2013-01-03 06:02:00,30.0,4.0,-100.00,North,3,20.0,30.0,33,0.00,,,0.00,2.000000,,2013-01-03 14:02:00,
2013-01-03 06:12:00,30.0,4.0,-100.00,North,3,20.0,30.0,33,0.00,,,0.00,2.000000,,2013-01-03 14:12:00,
2013-01-03 06:33:00,29.0,4.0,-100.00,North,3,14.0,26.0,34,0.00,,,0.00,2.000000,,2013-01-03 14:33:00,
2013-01-03 06:43:00,29.0,4.0,-100.00,North,3,14.0,26.0,34,0.00,,,0.00,2.000000,,2013-01-03 14:43:00,
2013-01-03 06:53:00,29.0,4.0,-100.00,North,3,14.0,26.0,34,0.00,,,0.00,2.000000,,2013-01-03 14:53:00,
2013-01-03 07:02:00,29.0,4.0,-100.00,North,3,14.0,26.0,34,0.00,,,0.00,2.000000,,2013-01-03 15:02:00,
2013-01-03 07:12:00,29.0,4.0,-100.00,North,3,14.0,26.0,34,0.00,,,0.00,2.000000,,2013-01-03 15:12:00,
2013-01-03 07:43:00,30.0,3.0,-100.00,North,3,14.0,21.0,31,0.00,,,0.00,6.000000,,2013-01-03 15:43:00,
2013-01-03 07:53:00,30.0,3.0,-100.00,North,3,14.0,21.0,31,0.00,,,0.00,6.000000,,2013-01-03 15:53:00,
2013-01-03 08:03:00,30.0,3.0,-100.00,North,3,14.0,21.0,31,0.00,,,0.00,6.000000,,2013-01-03 16:03:00,
2013-01-03 08:12:00,30.0,3.0,-100.00,North,3,14.0,21.0,31,0.00,,,0.00,6.000000,,2013-01-03 16:12:00,
2013-01-03 08:43:00,30.0,4.0,-100.00,North,3,16.0,21.0,33,0.00,,,0.00,134.000000,,2013-01-03 16:43:00,
2013-01-03 08:53:00,30.0,4.0,-100.00,North,3,16.0,21.0,33,0.00,,,0.00,134.000000,,2013-01-03 16:53:00,
2013-01-03 09:03:00,30.0,4.0,-100.00,North,3,16.0,21.0,33,0.00,,,0.00,134.000000,,2013-01-03 17:03:00,
2013-01-03 09:12:00,30.0,4.0,-100.00,North,3,16.0,21.0,33,0.00,,,0.00,134.000000,,2013-01-03 17:12:00,
2013-01-03 09:43:00,32.0,8.0,-100.00,North,3,16.0,21.0,36,0.00,,,0.00,356.000000,,2013-01-03 17:43:00,
2013-01-03 09:53:00,32.0,8.0,-100.00,North,3,16.0,21.0,36,0.00,,,0.00,356.000000,,2013-01-03 17:53:00,
2013-01-03 10:03:00,32.0,8.0,-100.00,North,3,16.0,21.0,36,0.00,,,0.00,356.000000,,2013-01-03 18:03:00,
2013-01-03 10:12:00,32.0,8.0,-100.00,North,3,16.0,21.0,36,0.00,,,0.00,356.000000,,2013-01-03 18:12:00,
2013-01-03 10:33:00,37.0,5.0,-100.00,North,2,14.0,22.0,26,0.00,,,0.00,543.000000,,2013-01-03 18:33:00,
2013-01-03 10:43:00,37.0,5.0,-100.00,North,2,14.0,22.0,26,0.00,,,0.00,543.000000,,2013-01-03 18:43:00,
2013-01-03 10:53:00,37.0,5.0,-100.00,North,2,14.0,22.0,26,0.00,,,0.00,543.000000,,2013-01-03 18:53:00,
2013-01-03 11:03:00,37.0,5.0,-100.00,North,2,14.0,22.0,26,0.00,,,0.00,543.000000,,2013-01-03 19:03:00,
2013-01-03 11:12:00,37.0,5.0,-100.00,North,2,14.0,22.0,26,0.00,,,0.00,543.000000,,2013-01-03 19:12:00,
2013-01-03 11:56:00,37.0,6.0,-100.00,North,2,18.0,24.0,27,0.00,,,-99.99,672.000000,,2013-01-03 19:56:00,
2013-01-03 12:02:00,37.0,6.0,-100.00,North,2,18.0,24.0,27,0.00,,,-99.99,672.000000,,2013-01-03 20:02:00,
2013-01-03 12:12:00,37.0,6.0,-100.00,North,2,18.0,24.0,27,0.00,,,-99.99,672.000000,,2013-01-03 20:12:00,
2013-01-03 12:33:00,38.0,8.0,-100.00,North,2,17.0,24.0,28,0.00,,,-99.99,729.000000,,2013-01-03 20:33:00,
2013-01-03 12:43:00,38.0,8.0,-100.00,North,2,17.0,24.0,28,0.00,,,-99.99,729.000000,,2013-01-03 20:43:00,
2013-01-03 12:53:00,38.0,8.0,-100.00,North,2,17.0,24.0,28,0.00,,,-99.99,729.000000,,2013-01-03 20:53:00,
2013-01-03 13:02:00,38.0,8.0,-100.00,North,2,17.0,24.0,28,0.00,,,-99.99,729.000000,,2013-01-03 21:02:00,
2013-01-03 13:12:00,38.0,8.0,-100.00,North,2,17.0,24.0,28,0.00,,,-99.99,729.000000,,2013-01-03 21:12:00,
2013-01-03 13:50:00,39.0,9.0,-100.00,North,2,17.0,25.0,28,0.00,,,0.00,711.000000,,2013-01-03 21:50:00,
2013-01-03 14:02:00,39.0,9.0,-100.00,North,2,17.0,25.0,28,0.00,,,0.00,711.000000,,2013-01-03 22:02:00,
2013-01-03 14:12:00,39.0,9.0,-100.00,North,2,17.0,25.0,28,0.00,,,0.00,711.000000,,2013-01-03 22:12:00,
2013-01-03 14:43:00,39.0,6.0,-100.00,North,2,14.0,22.0,25,0.00,,,0.00,619.000000,,2013-01-03 22:43:00,
2013-01-03 14:52:00,39.0,6.0,-100.00,North,2,14.0,22.0,25,0.00,,,0.00,619.000000,,2013-01-03 22:52:00,
2013-01-03 15:02:00,39.0,6.0,-100.00,North,2,14.0,22.0,25,0.00,,,0.00,619.000000,,2013-01-03 23:02:00,
2013-01-03 15:12:00,39.0,6.0,-100.00,North,2,14.0,22.0,25,0.00,,,0.00,619.000000,,2013-01-03 23:12:00,
2013-01-03 15:43:00,38.0,6.0,-100.00,North,2,13.0,20.0,26,0.00,,,-99.99,465.000000,,2013-01-03 23:43:00,
2013-01-03 15:53:00,38.0,6.0,-100.00,North,2,13.0,20.0,26,0.00,,,-99.99,465.000000,,2013-01-03 23:53:00,
2013-01-03 16:03:00,38.0,6.0,-100.00,North,2,13.0,20.0,26,0.00,,,-99.99,465.000000,,2013-01-04 00:03:00,
2013-01-03 16:12:00,38.0,6.0,-100.00,North,2,13.0,20.0,26,0.00,,,-99.99,465.000000,,2013-01-04 00:12:00,
2013-01-03 16:33:00,34.0,4.0,-100.00,North,2,13.0,20.0,28,0.00,,,0.00,257.000000,,2013-01-04 00:33:00,
2013-01-03 16:42:00,34.0,4.0,-100.00,North,2,13.0,20.0,28,0.00,,,0.00,257.000000,,2013-01-04 00:42:00,
2013-01-03 16:52:00,34.0,4.0,-100.00,North,2,13.0,20.0,28,0.00,,,0.00,257.000000,,2013-01-04 00:52:00,
2013-01-03 17:02:00,34.0,4.0,-100.00,North,2,13.0,20.0,28,0.00,,,0.00,257.000000,,2013-01-04 01:02:00,
2013-01-03 17:12:00,34.0,4.0,-100.00,North,2,13.0,20.0,28,0.00,,,0.00,257.000000,,2013-01-04 01:12:00,
2013-01-03 17:42:00,30.0,4.0,-100.00,North,2,12.0,18.0,32,0.00,,,-99.99,26.000000,,2013-01-04 01:42:00,
2013-01-03 17:52:00,30.0,4.0,-100.00,North,2,12.0,18.0,32,0.00,,,-99.99,26.000000,,2013-01-04 01:52:00,
2013-01-03 18:02:00,30.0,4.0,-100.00,North,2,12.0,18.0,32,0.00,,,-99.99,26.000000,,2013-01-04 02:02:00,
2013-01-03 18:12:00,30.0,4.0,-100.00,North,2,12.0,18.0,32,0.00,,,-99.99,26.000000,,2013-01-04 02:12:00,
2013-01-03 18:33:00,28.0,2.0,-100.00,North,3,12.0,17.0,32,0.00,,,0.00,2.000000,,2013-01-04 02:33:00,
2013-01-03 18:42:00,28.0,2.0,-100.00,North,3,12.0,17.0,32,0.00,,,0.00,2.000000,,2013-01-04 02:42:00,
2013-01-03 18:53:00,28.0,2.0,-100.00,North,3,12.0,17.0,32,0.00,,,0.00,2.000000,,2013-01-04 02:53:00,
2013-01-03 19:02:00,28.0,2.0,-100.00,North,3,12.0,17.0,32,0.00,,,0.00,2.000000,,2013-01-04 03:02:00,
2013-01-03 19:12:00,28.0,2.0,-100.00,North,3,12.0,17.0,32,0.00,,,0.00,2.000000,,2013-01-04 03:12:00,
2013-01-03 19:43:00,28.0,2.0,-100.00,North,3,10.0,16.0,32,0.00,,,0.00,2.000000,,2013-01-04 03:43:00,
2013-01-03 19:53:00,28.0,2.0,-100.00,North,3,10.0,16.0,32,0.00,,,0.00,2.000000,,2013-01-04 03:53:00,
2013-01-03 20:02:00,28.0,2.0,-100.00,North,3,10.0,16.0,32,0.00,,,0.00,2.000000,,2013-01-04 04:02:00,
2013-01-03 20:12:00,28.0,2.0,-100.00,North,3,10.0,16.0,32,0.00,,,0.00,2.000000,,2013-01-04 04:12:00,
2013-01-03 20:32:00,29.0,-1.0,-100.00,North,3,10.0,15.0,27,0.00,,,0.00,2.000000,,2013-01-04 04:32:00,
2013-01-03 20:42:00,29.0,-1.0,-100.00,North,3,10.0,15.0,27,0.00,,,0.00,2.000000,,2013-01-04 04:42:00,
2013-01-03 20:52:00,29.0,-1.0,-100.00,North,3,10.0,15.0,27,0.00,,,0.00,2.000000,,2013-01-04 04:52:00,
2013-01-03 21:03:00,29.0,-1.0,-100.00,North,3,10.0,15.0,27,0.00,,,0.00,2.000000,,2013-01-04 05:03:00,
2013-01-03 21:12:00,29.0,-1.0,-100.00,North,3,10.0,15.0,27,0.00,,,0.00,2.000000,,2013-01-04 05:12:00,
2013-01-03 21:33:00,29.0,-5.0,-100.00,North,3,8.0,11.0,22,0.00,,,-99.99,2.000000,,2013-01-04 05:33:00,
2013-01-03 21:42:00,29.0,-5.0,-100.00,North,3,8.0,11.0,22,0.00,,,-99.99,2.000000,,2013-01-04 05:42:00,
2013-01-03 21:52:00,29.0,-5.0,-100.00,North,3,8.0,11.0,22,0.00,,,-99.99,2.000000,,2013-01-04 05:52:00,
2013-01-03 22:02:00,29.0,-5.0,-100.00,North,3,8.0,11.0,22,0.00,,,-99.99,2.000000,,2013-01-04 06:02:00,
2013-01-03 22:12:00,29.0,-5.0,-100.00,North,3,8.0,11.0,22,0.00,,,-99.99,2.000000,,2013-01-04 06:12:00,
2013-01-03 22:33:00,32.0,-4.0,-100.00,North,3,6.0,10.0,20,0.00,,,0.00,2.000000,,2013-01-04 06:33:00,
2013-01-03 22:42:00,32.0,-4.0,-100.00,North,3,6.0,10.0,20,0.00,,,0.00,2.000000,,2013-01-04 06:42:00,
2013-01-03 22:52:00,32.0,-4.0,-100.00,North,3,6.0,10.0,20,0.00,,,0.00,2.000000,,2013-01-04 06:52:00,
2013-01-03 23:02:00,32.0,-4.0,-100.00,North,3,6.0,10.0,20,0.00,,,0.00,2.000000,,2013-01-04 07:02:00,
2013-01-03 23:12:00,32.0,-4.0,-100.00,North,3,6.0,10.0,20,0.00,,,0.00,2.000000,,2013-01-04 07:12:00,
2013-01-03 23:32:00,32.0,-13.0,-100.00,North,3,6.0,9.0,13,0.00,,,-99.99,2.000000,,2013-01-04 07:32:00,
2013-01-03 23:42:00,32.0,-13.0,-100.00,North,3,6.0,9.0,13,0.00,,,-99.99,2.000000,,2013-01-04 07:42:00,
2013-01-03 23:52:00,32.0,-13.0,-100.00,North,3,6.0,9.0,13,0.00,,,-99.99,2.000000,,2013-01-04 07:52:00,